الصفحة الرئيسية
METAR-TAF:

METAR-TAF

مطار :

تاتشيكاوا, اليابان

دائرة عرض: 35-42N, خط طول: 139-24E, ارتفاع: 95 متر

مراقبة الطقس الحالي

تاريخ ووقت الإصدار 47 دقيقة قبل الساعة 06:28UTC
ريح 3 عقدة من الشمال/الشمال الغربي, الاتجاه يتراوح بين الشمال الغربي و الشمال
درجة الحرارة 23°درجة مئوية
الرطوبة 100%
ضغط 1016 hPa
الرؤية: 2500 متر
غيوم قليلة على ارتفاع 500 قدم
غيوم مفككة على ارتفاع 700 قدم
غيوم مفككة على ارتفاع 1200 قدم
زخات من المطر, غشاء

METAR: RJTC 160628Z 34003KT 310V010 2500 SHRA BR FEW005 BKN007 BKN012 23/23 Q1016 RMK 1ST005 5ST007 6CU012 A3000

زمن: 16:15 (07:15 UTC)


TAF: مفقودة

أرصاد الطقس والتوقعات من أكثر من 4000 مطار (تقارير الطقس للمطار METAR والتنبؤ بالطقس بالمطارTAF).

المحطات المتاحة هي النقط الصفراء والحمراء على الخريطة.

حرك المؤشر فوق النقطة لمعرفة اسم المحطة.

ثم انقر لمعرفة أرصاد وتوقعات الطقس.

لتغيير الخارطة: اضغط على الأزرار الخضراء مع رمز الصليب الأسود للتكبير. على الزر الأخضر مع شرطة للتصغير، أو على الأسهم الخضراء للخرائط المجاورة.


METAR-TAF: